createdAt,value
2018-07-31T00:00:47.010Z,3.47
2018-07-31T00:03:15.001Z,3.50
2018-07-31T00:05:42.916Z,3.80
2018-07-31T00:08:10.811Z,3.23
2018-07-31T00:10:38.843Z,3.53
2018-07-31T00:13:06.708Z,3.57
2018-07-31T00:15:34.619Z,3.80
2018-07-31T00:18:02.511Z,3.60
2018-07-31T00:20:30.492Z,3.60
2018-07-31T00:22:58.427Z,3.80
2018-07-31T00:25:26.401Z,3.40
2018-07-31T00:27:54.347Z,3.50
2018-07-31T00:30:22.332Z,3.03
2018-07-31T00:32:50.219Z,3.23
2018-07-31T00:35:18.140Z,3.40
2018-07-31T00:37:46.042Z,3.27
2018-07-31T00:40:13.949Z,3.13
2018-07-31T00:42:42.141Z,3.00
2018-07-31T00:45:10.076Z,3.00
2018-07-31T00:47:38.014Z,3.30
2018-07-31T00:50:05.907Z,3.60
2018-07-31T00:52:34.206Z,3.43
2018-07-31T00:55:02.185Z,3.27
2018-07-31T00:57:30.165Z,3.40
2018-07-31T00:59:58.059Z,3.53
2018-07-31T01:02:26.016Z,3.40
2018-07-31T01:04:53.951Z,3.20
2018-07-31T01:07:22.230Z,3.80
2018-07-31T01:09:50.095Z,3.80
2018-07-31T01:12:17.995Z,3.60
2018-07-31T01:14:45.950Z,3.83
2018-07-31T01:17:14.840Z,3.73
2018-07-31T01:19:42.719Z,3.97
2018-07-31T01:22:10.639Z,3.77
2018-07-31T01:24:38.555Z,3.43
2018-07-31T01:27:06.516Z,3.87
2018-07-31T01:29:34.504Z,4.10
2018-07-31T01:32:02.477Z,3.63
2018-07-31T01:34:30.427Z,3.33
2018-07-31T01:36:58.464Z,3.27
2018-07-31T01:39:26.383Z,4.00
2018-07-31T01:41:54.275Z,3.60
2018-07-31T01:44:22.211Z,3.57
2018-07-31T01:46:50.135Z,3.60
2018-07-31T01:49:18.059Z,4.27
2018-07-31T01:51:46.538Z,4.10
2018-07-31T01:54:14.491Z,4.00
2018-07-31T01:56:42.712Z,3.70
2018-07-31T01:59:10.612Z,3.47
2018-07-31T02:01:38.549Z,3.60
2018-07-31T02:04:06.734Z,3.30
2018-07-31T02:06:34.613Z,3.83
2018-07-31T02:09:02.542Z,3.90
2018-07-31T02:11:30.468Z,3.73
2018-07-31T02:13:58.437Z,3.30
2018-07-31T02:16:26.435Z,3.80
2018-07-31T02:18:54.327Z,4.00
2018-07-31T02:21:22.200Z,3.43
2018-07-31T02:23:50.136Z,4.03
2018-07-31T02:26:18.049Z,4.00
2018-07-31T02:28:46.097Z,4.07
2018-07-31T02:31:13.900Z,3.80
2018-07-31T02:33:41.907Z,3.87
2018-07-31T02:36:09.799Z,4.10
2018-07-31T02:38:37.724Z,3.90
2018-07-31T02:41:05.694Z,3.73
2018-07-31T02:43:33.675Z,3.93
2018-07-31T02:46:01.568Z,4.83
2018-07-31T02:48:29.524Z,3.60
2018-07-31T02:50:57.455Z,3.63
2018-07-31T02:53:25.636Z,4.37
2018-07-31T02:55:53.632Z,3.90
2018-07-31T02:58:21.677Z,3.93
2018-07-31T03:00:49.478Z,3.80
2018-07-31T03:03:17.416Z,4.97
2018-07-31T03:05:45.336Z,4.37
2018-07-31T03:08:13.377Z,4.17
2018-07-31T03:10:41.506Z,4.60
2018-07-31T03:13:09.408Z,4.07
2018-07-31T03:15:37.717Z,4.77
2018-07-31T03:18:05.636Z,5.40
2018-07-31T03:20:33.536Z,4.03
2018-07-31T03:23:01.558Z,4.57
2018-07-31T03:25:29.476Z,4.87
2018-07-31T03:27:57.439Z,3.90
2018-07-31T03:30:25.432Z,3.83
2018-07-31T03:32:53.347Z,4.10
2018-07-31T03:35:21.290Z,3.63
2018-07-31T03:37:49.275Z,4.03
2018-07-31T03:40:17.287Z,3.70
2018-07-31T03:42:45.235Z,3.80
2018-07-31T03:45:13.192Z,3.87
2018-07-31T03:47:41.171Z,4.00
2018-07-31T03:50:09.147Z,4.40
2018-07-31T03:52:37.298Z,3.87
2018-07-31T03:55:05.227Z,3.60
2018-07-31T03:57:33.233Z,3.77
2018-07-31T04:00:01.630Z,3.90
2018-07-31T04:02:29.668Z,3.50
2018-07-31T04:04:57.582Z,3.63
2018-07-31T04:07:25.493Z,3.90
2018-07-31T04:09:53.395Z,4.80
2018-07-31T04:12:21.400Z,3.70
2018-07-31T04:14:49.428Z,3.80
2018-07-31T04:17:17.322Z,4.20
2018-07-31T04:19:45.564Z,3.53
2018-07-31T04:22:13.460Z,3.47
2018-07-31T04:24:41.508Z,3.10
2018-07-31T04:27:09.418Z,3.93
2018-07-31T04:29:37.349Z,3.57
2018-07-31T04:32:05.602Z,3.47
2018-07-31T04:34:33.568Z,9.63
2018-07-31T04:37:01.467Z,12.20
2018-07-31T04:39:29.462Z,4.77
2018-07-31T04:41:57.336Z,4.13
2018-07-31T04:44:25.270Z,4.57
2018-07-31T04:46:53.132Z,3.87
2018-07-31T04:49:21.100Z,4.03
2018-07-31T04:51:49.036Z,4.37
2018-07-31T04:54:16.935Z,4.27
2018-07-31T04:56:46.120Z,6.03
2018-07-31T04:59:13.999Z,4.70
2018-07-31T05:01:42.014Z,4.50
2018-07-31T05:04:09.934Z,4.27
2018-07-31T05:06:37.954Z,5.23
2018-07-31T05:09:07.284Z,4.70
2018-07-31T05:11:35.227Z,4.60
2018-07-31T05:14:03.295Z,4.67
2018-07-31T05:16:31.218Z,4.87
2018-07-31T05:18:59.119Z,4.83
2018-07-31T05:21:27.007Z,5.20
2018-07-31T05:23:54.988Z,4.60
2018-07-31T05:26:22.890Z,11.17
2018-07-31T05:28:50.811Z,20.60
2018-07-31T05:31:18.716Z,6.03
2018-07-31T05:33:46.791Z,6.47
2018-07-31T05:36:14.675Z,5.53
2018-07-31T05:38:42.917Z,5.50
2018-07-31T05:41:10.819Z,6.17
2018-07-31T05:43:38.721Z,6.63
2018-07-31T05:46:06.785Z,8.27
2018-07-31T05:48:34.683Z,7.20
2018-07-31T05:51:02.607Z,7.90
2018-07-31T05:53:30.864Z,6.60
2018-07-31T05:55:58.770Z,5.37
2018-07-31T05:58:26.679Z,5.90
2018-07-31T06:00:55.068Z,5.07
2018-07-31T06:03:22.971Z,4.90
2018-07-31T06:05:51.008Z,5.93
2018-07-31T06:08:18.991Z,5.30
2018-07-31T06:10:46.944Z,6.10
2018-07-31T06:13:14.866Z,5.13
2018-07-31T06:15:42.932Z,5.27
2018-07-31T06:18:11.094Z,4.60
2018-07-31T06:20:39.082Z,4.50
2018-07-31T06:23:07.046Z,4.93
2018-07-31T06:25:35.038Z,4.30
2018-07-31T06:28:03.065Z,4.47
2018-07-31T06:30:31.087Z,4.87
2018-07-31T06:32:59.242Z,5.30
2018-07-31T06:35:27.159Z,5.30
2018-07-31T06:37:56.192Z,5.13
2018-07-31T06:40:24.135Z,4.43
2018-07-31T06:42:52.038Z,4.93
2018-07-31T06:45:19.968Z,5.17
2018-07-31T06:47:47.854Z,4.90
2018-07-31T06:50:15.828Z,4.17
2018-07-31T06:52:44.523Z,4.90
2018-07-31T06:55:12.436Z,4.73
2018-07-31T06:57:40.428Z,4.77
2018-07-31T07:00:08.508Z,4.47
2018-07-31T07:02:36.466Z,5.00
2018-07-31T07:05:04.463Z,5.00
2018-07-31T07:07:32.580Z,4.40
2018-07-31T07:10:00.467Z,3.97
2018-07-31T07:12:28.353Z,4.00
2018-07-31T07:14:56.324Z,4.17
2018-07-31T07:17:24.224Z,3.77
2018-07-31T07:19:52.158Z,3.87
2018-07-31T07:22:20.104Z,4.40
2018-07-31T07:24:48.076Z,4.27
2018-07-31T07:27:15.988Z,4.87
2018-07-31T07:29:43.883Z,4.10
2018-07-31T07:32:12.415Z,4.37
2018-07-31T07:34:40.375Z,4.20
2018-07-31T07:37:08.363Z,3.97
2018-07-31T07:39:36.295Z,4.10
2018-07-31T07:42:04.276Z,4.17
2018-07-31T07:44:32.196Z,3.87
2018-07-31T07:47:00.148Z,4.40
2018-07-31T07:49:28.120Z,4.03
2018-07-31T07:51:56.010Z,4.10
2018-07-31T07:54:24.666Z,4.27
2018-07-31T07:56:52.576Z,4.30
2018-07-31T07:59:20.455Z,3.87
2018-07-31T08:01:48.462Z,4.10
2018-07-31T08:04:16.388Z,4.53
2018-07-31T08:06:44.272Z,4.23
2018-07-31T08:09:12.228Z,4.63
2018-07-31T08:11:40.226Z,4.07
2018-07-31T08:14:08.183Z,3.43
2018-07-31T08:16:36.072Z,4.43
2018-07-31T08:19:03.971Z,4.43
2018-07-31T08:21:31.919Z,4.53
2018-07-31T08:23:59.828Z,4.00
2018-07-31T08:26:27.735Z,4.23
2018-07-31T08:28:55.654Z,4.73
2018-07-31T08:31:23.639Z,4.20
2018-07-31T08:33:51.535Z,4.03
2018-07-31T08:36:19.426Z,4.20
2018-07-31T08:38:47.347Z,4.10
2018-07-31T08:41:15.275Z,3.80
2018-07-31T08:43:43.182Z,4.07
2018-07-31T08:46:11.115Z,3.67
2018-07-31T08:48:39.006Z,4.27
2018-07-31T08:51:06.923Z,3.93
2018-07-31T08:53:34.905Z,4.00
2018-07-31T08:56:02.799Z,4.17
2018-07-31T08:58:30.723Z,4.30
2018-07-31T09:00:58.600Z,3.87
2018-07-31T09:03:27.470Z,4.03
2018-07-31T09:05:55.399Z,4.93
2018-07-31T09:08:23.386Z,4.20
2018-07-31T09:10:51.436Z,3.80
2018-07-31T09:13:19.319Z,3.57
2018-07-31T09:15:47.199Z,4.30
2018-07-31T09:18:15.079Z,3.93
2018-07-31T09:20:42.973Z,3.47
2018-07-31T09:23:10.876Z,3.53
2018-07-31T09:25:44.643Z,3.90
2018-07-31T09:28:12.952Z,3.60
2018-07-31T09:30:46.279Z,3.70
2018-07-31T09:33:14.075Z,3.77
2018-07-31T09:35:41.965Z,3.37
2018-07-31T09:38:09.922Z,3.50
2018-07-31T09:40:37.796Z,3.90
2018-07-31T09:43:05.679Z,3.50
2018-07-31T09:45:33.572Z,3.90
2018-07-31T09:48:01.452Z,3.67
2018-07-31T09:50:29.836Z,3.60
2018-07-31T09:52:57.713Z,3.53
2018-07-31T09:55:25.620Z,3.83
2018-07-31T09:57:53.515Z,4.10
2018-07-31T10:00:26.707Z,3.67
2018-07-31T10:02:54.980Z,3.67
2018-07-31T10:05:23.176Z,3.70
2018-07-31T10:07:51.032Z,3.10
2018-07-31T10:10:18.905Z,3.90
2018-07-31T10:12:46.779Z,3.57
2018-07-31T10:15:14.775Z,3.83
2018-07-31T10:17:42.671Z,3.70
2018-07-31T10:20:10.620Z,3.60
2018-07-31T10:22:38.859Z,3.63
2018-07-31T10:25:07.081Z,3.37
2018-07-31T10:27:34.975Z,3.27
2018-07-31T10:30:02.940Z,3.60
2018-07-31T10:32:30.825Z,3.20
2018-07-31T10:34:58.712Z,3.70
2018-07-31T10:37:26.683Z,3.00
2018-07-31T10:39:54.495Z,4.00
2018-07-31T10:42:22.367Z,3.57
2018-07-31T10:44:50.272Z,3.53
2018-07-31T10:47:18.143Z,3.83
2018-07-31T10:49:46.039Z,3.20
2018-07-31T10:52:13.939Z,3.40
2018-07-31T10:54:41.816Z,3.40
2018-07-31T10:57:09.695Z,3.23
2018-07-31T10:59:38.306Z,3.53
2018-07-31T11:02:06.144Z,3.23
2018-07-31T11:04:34.087Z,3.40
2018-07-31T11:07:01.988Z,3.40
2018-07-31T11:09:29.883Z,3.40
2018-07-31T11:11:57.753Z,3.10
2018-07-31T11:14:25.644Z,3.33
2018-07-31T11:16:53.672Z,3.23
2018-07-31T11:19:21.571Z,3.17
2018-07-31T11:21:49.524Z,3.77
2018-07-31T11:24:17.685Z,3.23
2018-07-31T11:26:45.562Z,3.00
2018-07-31T11:29:13.456Z,3.60
2018-07-31T11:31:41.692Z,3.10
2018-07-31T11:34:09.610Z,3.37
2018-07-31T11:36:37.525Z,3.20
2018-07-31T11:39:07.068Z,3.23
2018-07-31T11:41:34.995Z,3.20
2018-07-31T11:44:02.977Z,3.57
2018-07-31T11:46:30.826Z,4.13
2018-07-31T11:48:58.725Z,3.80
2018-07-31T11:51:26.647Z,6.30
2018-07-31T11:53:54.551Z,3.63
2018-07-31T11:56:22.716Z,3.30
2018-07-31T11:58:50.596Z,3.30
2018-07-31T12:01:18.475Z,4.13
2018-07-31T12:03:46.390Z,3.30
2018-07-31T12:06:14.275Z,3.30
2018-07-31T12:08:42.167Z,2.87
2018-07-31T12:11:10.060Z,3.50
2018-07-31T12:13:37.928Z,3.53
2018-07-31T12:16:05.878Z,3.47
2018-07-31T12:18:33.784Z,3.40
2018-07-31T12:21:01.685Z,2.97
2018-07-31T12:23:29.827Z,2.93
2018-07-31T12:25:57.712Z,3.30
2018-07-31T12:28:25.588Z,3.80
2018-07-31T12:30:53.739Z,3.40
2018-07-31T12:33:21.674Z,3.70
2018-07-31T12:35:49.571Z,3.43
2018-07-31T12:38:17.577Z,3.60
2018-07-31T12:40:45.363Z,3.13
2018-07-31T12:43:13.253Z,3.27
2018-07-31T12:45:41.179Z,3.03
2018-07-31T12:48:09.100Z,3.30
2018-07-31T12:50:36.986Z,3.20
2018-07-31T12:53:05.156Z,3.00
2018-07-31T12:55:33.243Z,3.03
2018-07-31T12:58:01.421Z,3.20
2018-07-31T13:00:29.529Z,3.40
2018-07-31T13:02:57.925Z,3.50
2018-07-31T13:05:26.050Z,3.33
2018-07-31T13:07:54.375Z,3.03
2018-07-31T13:10:22.514Z,3.10
2018-07-31T13:12:50.640Z,2.93
2018-07-31T13:15:18.826Z,3.20
2018-07-31T13:17:46.965Z,3.03
2018-07-31T13:20:15.362Z,3.57
2018-07-31T13:22:43.578Z,3.20
2018-07-31T13:25:11.689Z,2.80
2018-07-31T13:27:39.811Z,2.90
2018-07-31T13:30:08.280Z,2.93
2018-07-31T13:32:36.463Z,2.77
2018-07-31T13:35:04.697Z,3.30
2018-07-31T13:37:32.853Z,3.23
2018-07-31T13:40:00.990Z,2.63
2018-07-31T13:42:29.128Z,3.03
2018-07-31T13:44:57.372Z,2.90
2018-07-31T13:47:25.508Z,3.10
2018-07-31T13:49:53.634Z,2.93
2018-07-31T13:52:21.882Z,3.20
2018-07-31T13:54:50.040Z,2.70
2018-07-31T13:57:18.160Z,2.90
2018-07-31T13:59:46.304Z,3.20
2018-07-31T14:02:14.428Z,2.80
2018-07-31T14:04:48.820Z,2.57
2018-07-31T14:07:16.930Z,2.83
2018-07-31T14:09:45.096Z,3.63
2018-07-31T14:12:13.208Z,2.90
2018-07-31T14:14:41.340Z,2.70
2018-07-31T14:17:10.030Z,2.70
2018-07-31T14:19:38.142Z,3.03
2018-07-31T14:22:06.763Z,3.37
2018-07-31T14:24:34.909Z,2.90
2018-07-31T14:27:03.058Z,3.10
2018-07-31T14:29:31.182Z,2.40
2018-07-31T14:31:59.594Z,2.53
2018-07-31T14:34:27.712Z,2.67
2018-07-31T14:36:55.832Z,3.20
2018-07-31T14:39:24.549Z,2.80
2018-07-31T14:41:52.697Z,2.50
2018-07-31T14:44:20.832Z,2.60
2018-07-31T14:46:49.033Z,2.40
2018-07-31T14:49:17.444Z,2.63
2018-07-31T14:51:46.348Z,2.20
2018-07-31T14:57:07.160Z,2.50
2018-07-31T14:59:35.313Z,2.50
2018-07-31T15:02:03.524Z,2.63
2018-07-31T15:04:31.689Z,2.53
2018-07-31T15:06:59.912Z,2.47
2018-07-31T15:09:28.112Z,2.70
2018-07-31T15:11:56.310Z,2.90
2018-07-31T15:14:24.547Z,2.50
2018-07-31T15:16:52.765Z,2.37
2018-07-31T15:19:20.972Z,2.60
2018-07-31T15:21:49.141Z,2.50
2018-07-31T15:24:17.264Z,2.30
2018-07-31T15:26:45.437Z,2.67
2018-07-31T15:29:13.819Z,2.33
2018-07-31T15:31:42.086Z,2.30
2018-07-31T15:34:10.263Z,2.30
2018-07-31T15:36:38.429Z,2.00
2018-07-31T15:39:08.626Z,2.20
2018-07-31T15:41:36.791Z,1.90
2018-07-31T15:44:04.955Z,2.00
2018-07-31T15:46:33.246Z,1.93
2018-07-31T15:49:01.393Z,1.90
2018-07-31T15:51:30.359Z,1.97
2018-07-31T15:53:58.572Z,1.93
2018-07-31T15:56:27.005Z,2.10
2018-07-31T15:58:55.180Z,2.97
2018-07-31T16:01:23.327Z,2.50
2018-07-31T16:03:51.484Z,2.77
2018-07-31T16:06:19.687Z,2.37
2018-07-31T16:08:47.840Z,2.03
2018-07-31T16:11:15.985Z,1.83
2018-07-31T16:13:44.120Z,1.67
2018-07-31T16:16:12.248Z,2.13
2018-07-31T16:18:40.490Z,10.00
2018-07-31T16:21:08.625Z,1.90
2018-07-31T16:23:36.786Z,2.20
2018-07-31T16:26:05.015Z,1.90
2018-07-31T16:28:33.222Z,2.10
2018-07-31T16:31:01.317Z,2.30
2018-07-31T16:33:29.450Z,1.73
2018-07-31T16:35:57.590Z,2.30
2018-07-31T16:38:25.871Z,3.33
2018-07-31T16:40:54.022Z,2.40
2018-07-31T16:43:22.221Z,2.77
2018-07-31T16:45:50.429Z,2.50
2018-07-31T16:48:18.557Z,2.90
2018-07-31T16:50:46.808Z,2.63
2018-07-31T16:53:15.146Z,2.70
2018-07-31T16:55:43.296Z,2.60
2018-07-31T16:58:11.488Z,2.53
2018-07-31T17:00:39.792Z,3.10
2018-07-31T17:03:07.908Z,2.57
2018-07-31T17:05:36.079Z,2.60
2018-07-31T17:08:04.233Z,2.30
2018-07-31T17:10:32.362Z,2.57
2018-07-31T17:13:00.553Z,2.60
2018-07-31T17:15:28.771Z,2.33
2018-07-31T17:17:57.017Z,2.60
2018-07-31T17:20:25.172Z,2.70
2018-07-31T17:22:53.329Z,2.80
2018-07-31T17:25:21.514Z,2.33
2018-07-31T17:27:49.645Z,2.50
2018-07-31T17:30:17.865Z,3.37
2018-07-31T17:32:46.092Z,2.83
2018-07-31T17:35:14.296Z,2.90
2018-07-31T17:37:42.421Z,2.80
2018-07-31T17:40:10.677Z,2.57
2018-07-31T17:42:38.845Z,2.47
2018-07-31T17:45:07.054Z,3.60
2018-07-31T17:47:35.320Z,2.60
2018-07-31T17:50:03.572Z,3.00
2018-07-31T17:52:31.993Z,2.43
2018-07-31T17:55:00.261Z,2.83
2018-07-31T17:57:29.428Z,2.33
2018-07-31T17:59:57.686Z,2.40
2018-07-31T18:02:25.852Z,2.30
2018-07-31T18:04:54.056Z,2.70
2018-07-31T18:07:22.232Z,2.80
2018-07-31T18:09:50.465Z,3.30
2018-07-31T18:12:18.626Z,2.70
2018-07-31T18:14:46.945Z,2.90
2018-07-31T18:17:15.029Z,2.70
2018-07-31T18:19:43.181Z,7.80
2018-07-31T18:22:11.336Z,2.97
2018-07-31T18:24:39.629Z,2.27
2018-07-31T18:27:08.129Z,2.23
2018-07-31T18:29:36.287Z,2.47
2018-07-31T18:32:04.416Z,2.60
2018-07-31T18:34:32.817Z,2.63
2018-07-31T18:37:01.026Z,2.77
2018-07-31T18:39:29.165Z,2.77
2018-07-31T18:41:57.473Z,2.67
2018-07-31T18:44:25.596Z,2.60
2018-07-31T18:46:53.926Z,2.40
2018-07-31T18:49:22.124Z,2.60
2018-07-31T18:51:50.434Z,2.90
2018-07-31T18:54:18.544Z,2.80
2018-07-31T18:56:46.682Z,2.87
2018-07-31T18:59:14.853Z,2.77
2018-07-31T19:01:43.164Z,2.93
2018-07-31T19:04:11.248Z,2.70
2018-07-31T19:06:39.465Z,2.93
2018-07-31T19:09:10.865Z,3.17
2018-07-31T19:11:39.293Z,2.60
2018-07-31T19:14:07.513Z,2.67
2018-07-31T19:16:36.866Z,2.80
2018-07-31T19:19:05.249Z,2.90
2018-07-31T19:21:34.464Z,2.73
2018-07-31T19:24:02.613Z,3.20
2018-07-31T19:26:30.762Z,2.97
2018-07-31T19:28:59.156Z,2.80
2018-07-31T19:31:27.435Z,2.93
2018-07-31T19:33:55.642Z,2.60
2018-07-31T19:36:23.763Z,2.20
2018-07-31T19:38:51.929Z,2.30
2018-07-31T19:41:20.232Z,2.63
2018-07-31T19:43:48.387Z,2.80
2018-07-31T19:46:16.620Z,2.57
2018-07-31T19:48:44.765Z,2.30
2018-07-31T19:51:13.661Z,1.83
2018-07-31T19:53:42.052Z,1.70
2018-07-31T19:56:10.330Z,1.67
2018-07-31T19:58:38.619Z,1.47
2018-07-31T20:01:06.894Z,1.80
2018-07-31T20:03:35.031Z,1.70
2018-07-31T20:06:03.207Z,1.70
2018-07-31T20:08:31.424Z,1.53
2018-07-31T20:10:59.667Z,2.17
2018-07-31T20:13:27.820Z,2.00
2018-07-31T20:15:55.980Z,1.67
2018-07-31T20:18:24.955Z,1.90
2018-07-31T20:20:53.159Z,1.80
2018-07-31T20:23:21.428Z,1.73
2018-07-31T20:25:49.606Z,1.43
2018-07-31T20:28:17.822Z,1.90
2018-07-31T20:30:45.983Z,1.70
2018-07-31T20:33:14.148Z,2.53
2018-07-31T20:35:42.287Z,2.20
2018-07-31T20:38:10.467Z,2.00
2018-07-31T20:40:38.668Z,1.27
2018-07-31T20:45:43.737Z,1.57
2018-07-31T20:48:12.022Z,1.60
2018-07-31T20:50:41.044Z,1.70
2018-07-31T20:53:09.290Z,1.70
2018-07-31T20:55:37.545Z,1.33
2018-07-31T20:58:05.732Z,1.40
2018-07-31T21:00:33.952Z,1.20
2018-07-31T21:03:02.154Z,1.43
2018-07-31T21:05:30.322Z,2.17
2018-07-31T21:07:58.465Z,2.10
2018-07-31T21:10:26.758Z,1.60
2018-07-31T21:12:55.104Z,1.80
2018-07-31T21:15:23.304Z,1.77
2018-07-31T21:17:51.487Z,1.53
2018-07-31T21:20:19.649Z,1.40
2018-07-31T21:22:47.848Z,1.20
2018-07-31T21:25:15.993Z,2.20
2018-07-31T21:27:44.169Z,1.67
2018-07-31T21:30:12.421Z,2.03
2018-07-31T21:32:40.493Z,1.63
2018-07-31T21:35:09.017Z,1.67
2018-07-31T21:37:37.186Z,1.70
2018-07-31T21:40:05.337Z,1.43
2018-07-31T21:42:33.489Z,1.87
2018-07-31T21:45:01.678Z,1.70
2018-07-31T21:47:29.925Z,1.33
2018-07-31T21:49:58.075Z,1.20
2018-07-31T21:52:26.212Z,1.40
2018-07-31T21:54:54.403Z,1.37
2018-07-31T21:57:22.456Z,1.30
2018-07-31T21:59:50.838Z,1.40
2018-07-31T22:02:24.045Z,1.70
2018-07-31T22:04:52.287Z,1.30
2018-07-31T22:07:20.474Z,1.67
2018-07-31T22:09:48.600Z,1.57
2018-07-31T22:12:16.821Z,1.30
2018-07-31T22:14:45.030Z,1.30
2018-07-31T22:17:14.193Z,1.50
2018-07-31T22:19:42.307Z,1.20
2018-07-31T22:22:10.432Z,1.00
2018-07-31T22:24:38.690Z,1.30
2018-07-31T22:27:06.733Z,1.10
2018-07-31T22:29:34.971Z,1.50
2018-07-31T22:32:03.156Z,1.30
2018-07-31T22:34:31.268Z,1.33
2018-07-31T22:36:59.385Z,1.20
2018-07-31T22:42:01.552Z,1.20
2018-07-31T22:44:29.658Z,0.97
2018-07-31T22:46:57.798Z,1.00
2018-07-31T22:49:26.057Z,1.10
2018-07-31T22:51:54.187Z,1.20
2018-07-31T22:54:22.288Z,1.10
2018-07-31T22:56:50.520Z,1.27
2018-07-31T22:59:18.695Z,1.17
2018-07-31T23:01:46.857Z,1.10
2018-07-31T23:04:15.051Z,1.33
2018-07-31T23:06:43.197Z,1.10
2018-07-31T23:09:12.084Z,1.10
2018-07-31T23:11:40.217Z,0.90
2018-07-31T23:14:08.499Z,1.37
2018-07-31T23:16:37.094Z,1.20
2018-07-31T23:19:05.351Z,1.13
2018-07-31T23:21:33.470Z,1.20
2018-07-31T23:24:01.650Z,1.30
2018-07-31T23:26:29.762Z,1.10
2018-07-31T23:28:57.895Z,1.30
2018-07-31T23:31:26.065Z,1.20
2018-07-31T23:33:54.194Z,1.30
2018-07-31T23:36:22.360Z,0.80
2018-07-31T23:38:50.572Z,1.10
2018-07-31T23:41:18.702Z,1.13
2018-07-31T23:43:46.817Z,1.17
2018-07-31T23:46:14.977Z,1.07
2018-07-31T23:48:43.188Z,0.90
2018-07-31T23:51:11.345Z,1.00
2018-07-31T23:53:39.453Z,1.20
2018-07-31T23:56:07.579Z,1.10
2018-07-31T23:58:35.752Z,1.47
